Time;durP1;ratioP1;P1;durP2;ratioP2;P2;SDS_P1;SDS_P2;PMS_P1;PMS_P2;Temp;Humidity;BMP_temperature;BMP_pressure;BME280_temperature;BME280_humidity;BME280_pressure;Samples;Min_cycle;Max_cycle;Signal;HPM_P1;HPM_P2
2022/08/08 00:01:43;;;;;;;16.50;13.23;;;;;;;20.91;77.25;99892.88;5088475;28;20833;-28
2022/08/08 00:04:19;;;;;;;15.70;12.68;;;;;;;20.90;77.95;99901.28;5088520;28;20485;-29
2022/08/08 00:07:03;;;;;;;15.35;11.95;;;;;;;20.97;77.16;99904.44;5088435;28;20040;-27
2022/08/08 00:09:53;;;;;;;17.08;13.02;;;;;;;21.10;76.16;99911.03;5088289;28;20032;-29
2022/08/08 00:12:28;;;;;;;15.38;13.10;;;;;;;21.12;76.24;99906.94;5107285;28;20560;-31
2022/08/08 00:15:03;;;;;;;16.98;13.30;;;;;;;21.12;76.28;99896.09;5088532;28;20511;-32
2022/08/08 00:17:41;;;;;;;17.58;14.25;;;;;;;21.16;76.60;99897.13;5087688;28;20506;-30
2022/08/08 00:20:09;;;;;;;17.83;13.98;;;;;;;21.21;76.39;99891.63;5088266;28;20034;-29
2022/08/08 00:22:52;;;;;;;17.00;13.40;;;;;;;21.10;76.60;99892.88;5088261;28;20039;-32
2022/08/08 00:25:25;;;;;;;16.65;12.95;;;;;;;20.99;76.09;99900.34;5088024;28;20019;-29
2022/08/08 00:27:56;;;;;;;17.00;13.80;;;;;;;20.99;75.83;99902.25;5087589;28;20039;-33
2022/08/08 00:30:25;;;;;;;16.30;13.10;;;;;;;20.90;76.31;99904.00;5088108;28;20605;-29
2022/08/08 00:32:56;;;;;;;15.82;12.95;;;;;;;20.82;77.05;99892.72;5087889;28;20038;-29
2022/08/08 00:35:53;;;;;;;16.15;13.68;;;;;;;21.07;76.44;99915.16;5106393;28;20027;-31
2022/08/08 00:38:29;;;;;;;;;;;;;;;21.03;76.60;99903.28;5087671;28;20031;-27
2022/08/08 00:41:28;;;;;;;19.75;14.80;;;;;;;20.97;77.46;99890.91;5106471;28;19919;-28
2022/08/08 00:44:13;;;;;;;19.25;13.95;;;;;;;20.81;78.31;99918.19;5106185;28;20509;-29
2022/08/08 00:47:08;;;;;;;18.30;13.75;;;;;;;20.93;77.71;99914.25;5106290;28;20052;-27
2022/08/08 00:49:39;;;;;;;20.77;14.48;;;;;;;20.81;77.65;99923.63;5106075;28;20778;-28
2022/08/08 00:52:32;;;;;;;38.20;25.70;;;;;;;20.82;78.63;99919.00;5106030;28;20513;-35
2022/08/08 00:55:16;;;;;;;32.08;23.23;;;;;;;21.10;77.29;99919.97;5087564;28;20637;-27
2022/08/08 00:58:03;;;;;;;32.78;22.65;;;;;;;21.14;77.85;99926.44;5087378;28;20031;-30
2022/08/08 01:00:55;;;;;;;23.50;16.83;;;;;;;21.17;77.77;99931.28;5106059;28;20035;-32
2022/08/08 01:03:23;;;;;;;19.35;15.30;;;;;;;21.06;78.20;99929.78;5105727;28;20057;-30
2022/08/08 01:06:10;;;;;;;20.20;15.80;;;;;;;20.91;78.58;99916.47;5105971;28;20608;-28
2022/08/08 01:08:54;;;;;;;20.35;15.70;;;;;;;21.11;78.44;99935.16;5087330;28;20084;-29
2022/08/08 01:12:03;;;;;;;19.58;14.95;;;;;;;20.85;79.87;99929.25;5105737;28;20419;-28
2022/08/08 01:15:03;;;;;;;19.70;16.33;;;;;;;21.16;78.30;99931.56;5025507;28;20184;-29
2022/08/08 01:17:37;;;;;;;22.27;17.02;;;;;;;21.04;78.44;99932.00;5086763;28;20395;-33
2022/08/08 01:20:29;;;;;;;18.63;15.80;;;;;;;21.08;78.06;99927.59;5086927;28;20130;-31
2022/08/08 01:23:04;;;;;;;22.58;17.08;;;;;;;21.11;77.45;99923.53;5087420;28;20035;-32
2022/08/08 01:25:51;;;;;;;26.35;19.60;;;;;;;21.07;77.77;99917.88;5087073;28;20028;-28
2022/08/08 01:28:31;;;;;;;25.92;20.73;;;;;;;20.99;78.00;99921.22;5088059;28;20034;-29
2022/08/08 01:30:59;;;;;;;24.88;18.73;;;;;;;20.89;78.27;99924.88;5091550;28;20554;-34
2022/08/08 01:33:57;;;;;;;22.30;18.13;;;;;;;20.90;78.12;99920.25;5109832;28;20065;-29
2022/08/08 01:36:31;;;;;;;;;;;;;;;20.50;79.47;99906.09;5110487;28;20027;-27
2022/08/08 01:39:05;;;;;;;26.38;19.42;;;;;;;20.54;79.91;99907.94;5109796;28;19919;-29
2022/08/08 01:41:36;;;;;;;36.30;23.67;;;;;;;20.66;80.37;99926.53;5109471;28;20035;-29
2022/08/08 01:44:37;;;;;;;56.25;34.03;;;;;;;20.44;80.78;99908.84;5109724;28;20499;-28
2022/08/08 01:47:08;;;;;;;58.83;37.17;;;;;;;20.33;81.85;99925.50;5075354;28;20055;-28
2022/08/08 01:50:05;;;;;;;56.42;36.30;;;;;;;20.12;82.20;99895.13;5090985;28;20032;-30
2022/08/08 01:52:34;;;;;;;43.15;30.38;;;;;;;20.37;81.82;99923.81;5090885;28;20451;-33
2022/08/08 01:55:11;;;;;;;34.25;24.17;;;;;;;20.45;82.19;99920.47;5109403;28;20062;-30
2022/08/08 01:57:55;;;;;;;;;;;;;;;20.54;81.20;99923.38;5090931;28;20039;-30
2022/08/08 02:00:35;;;;;;;27.13;20.90;;;;;;;20.43;81.67;99918.09;5109482;28;20000;-30
2022/08/08 02:03:22;;;;;;;24.60;20.67;;;;;;;20.48;81.91;99920.72;5090753;28;20036;-29
2022/08/08 02:05:57;;;;;;;;;;;;;;;20.49;81.67;99921.53;5091043;28;20480;-31
2022/08/08 02:08:41;;;;;;;24.27;19.85;;;;;;;20.40;82.47;99913.22;5090926;28;19926;-31
2022/08/08 02:11:12;;;;;;;23.70;18.80;;;;;;;20.42;82.35;99916.47;5108993;28;20023;-30
2022/08/08 02:13:52;;;;;;;24.23;19.35;;;;;;;20.59;80.75;99915.22;5108880;28;20035;-28
2022/08/08 02:16:27;;;;;;;22.27;18.35;;;;;;;20.68;80.74;99929.75;5090491;28;20056;-32
2022/08/08 02:19:00;;;;;;;23.88;19.10;;;;;;;20.66;80.70;99923.81;5090866;28;20035;-30
2022/08/08 02:24:42;;;;;;;21.40;18.42;;;;;;;20.55;82.08;99920.38;5005515;28;20065;-32
2022/08/08 02:27:17;;;;;;;24.08;18.98;;;;;;;20.52;81.61;99920.16;5005619;28;20034;-33
2022/08/08 02:30:04;;;;;;;22.35;17.90;;;;;;;20.51;81.57;99918.53;5062397;28;20044;-28
2022/08/08 02:32:36;;;;;;;21.00;18.08;;;;;;;20.10;82.66;99927.09;5090125;28;20111;-31
2022/08/08 02:35:01;;;;;;;22.27;16.52;;;;;;;19.82;80.93;99924.09;5089879;28;20135;-30
2022/08/08 02:37:32;;;;;;;19.85;15.73;;;;;;;19.74;80.06;99928.22;5108429;28;20466;-31
2022/08/08 02:40:36;;;;;;;20.75;17.35;;;;;;;20.07;80.66;99923.84;5108754;28;20115;-31
2022/08/08 02:43:14;;;;;;;25.85;17.35;;;;;;;20.17;81.49;99927.56;5090065;28;20176;-30
2022/08/08 02:45:45;;;;;;;27.15;18.48;;;;;;;20.24;83.55;99930.75;5107926;28;20062;-29
2022/08/08 02:48:29;;;;;;;23.23;18.80;;;;;;;20.25;83.21;99932.38;5108331;28;20073;-29
2022/08/08 02:51:32;;;;;;;29.80;23.30;;;;;;;20.31;83.27;99924.97;5108397;28;20039;-31
2022/08/08 02:54:15;;;;;;;25.88;19.63;;;;;;;20.29;83.67;99928.00;5089928;28;20067;-31
2022/08/08 02:57:12;;;;;;;26.95;21.23;;;;;;;20.15;84.05;99929.75;5089771;28;20028;-29
2022/08/08 03:00:14;;;;;;;32.53;22.52;;;;;;;19.93;85.15;99931.03;5108290;28;20070;-28
2022/08/08 03:03:04;;;;;;;25.52;19.83;;;;;;;20.15;83.95;99935.19;5108586;28;20108;-30
2022/08/08 03:06:00;;;;;;;26.17;20.15;;;;;;;20.01;83.81;99916.88;5108242;28;20070;-32
2022/08/08 03:08:26;;;;;;;39.55;25.95;;;;;;;19.96;84.73;99935.88;5089513;28;20081;-29
2022/08/08 03:11:18;;;;;;;31.95;23.85;;;;;;;19.81;85.46;99941.41;5108133;28;20035;-30
2022/08/08 03:14:25;;;;;;;38.58;25.67;;;;;;;19.71;86.06;99949.63;5107380;28;20101;-30
2022/08/08 03:17:14;;;;;;;38.47;25.90;;;;;;;19.50;86.88;99919.97;5107452;28;20030;-28
2022/08/08 03:20:00;;;;;;;33.38;22.20;;;;;;;19.47;87.50;99942.16;5057699;28;20119;-28
2022/08/08 03:22:25;;;;;;;30.25;21.52;;;;;;;19.56;87.28;99954.03;5074395;28;20031;-28
2022/08/08 03:24:52;;;;;;;28.10;20.73;;;;;;;19.57;87.25;99950.22;5107707;28;20050;-29
2022/08/08 03:27:28;;;;;;;25.42;19.77;;;;;;;19.61;86.90;99955.88;5107468;28;20056;-27
2022/08/08 03:30:02;;;;;;;25.83;20.00;;;;;;;19.56;87.16;99953.22;5107547;28;20022;-33
2022/08/08 03:35:11;;;;;;;36.78;26.58;;;;;;;19.52;86.95;99941.34;5107451;28;20422;-30
2022/08/08 03:37:37;;;;;;;41.10;28.50;;;;;;;19.77;85.60;99956.59;5107063;28;20024;-29
2022/08/08 03:40:04;;;;;;;30.60;22.00;;;;;;;19.78;85.34;99977.19;5089045;28;20486;-30
2022/08/08 03:42:30;;;;;;;26.83;21.42;;;;;;;19.63;86.20;99976.13;5107639;28;21054;-33
2022/08/08 03:44:56;;;;;;;26.50;20.25;;;;;;;19.71;85.53;99977.47;5088888;28;20028;-32
2022/08/08 03:47:21;;;;;;;22.67;19.23;;;;;;;19.90;84.47;99985.75;5088954;28;20035;-28
2022/08/08 03:49:50;;;;;;;25.73;20.33;;;;;;;19.72;85.58;99978.31;5106990;28;20020;-29
2022/08/08 03:52:16;;;;;;;24.67;19.95;;;;;;;19.64;84.58;99966.94;5106653;28;20499;-29
2022/08/08 03:54:43;;;;;;;26.48;19.83;;;;;;;19.84;84.09;99981.47;5107404;28;20088;-28
2022/08/08 03:57:14;;;;;;;36.53;27.98;;;;;;;19.98;83.61;99993.25;5107016;28;20107;-29
2022/08/08 03:59:40;;;;;;;33.97;23.83;;;;;;;19.97;83.38;99969.97;5106836;28;20040;-28
2022/08/08 04:02:16;;;;;;;31.88;24.05;;;;;;;20.04;83.56;99991.28;5106810;28;20035;-28
2022/08/08 04:04:42;;;;;;;40.17;29.02;;;;;;;20.06;83.85;99994.53;5106608;28;20504;-30
2022/08/08 04:07:07;;;;;;;45.72;29.33;;;;;;;20.12;83.44;99998.78;5106657;28;20039;-27
2022/08/08 04:09:33;;;;;;;35.90;25.70;;;;;;;19.95;84.31;99980.28;5106456;28;20027;-31
2022/08/08 04:11:59;;;;;;;32.22;22.73;;;;;;;19.94;85.43;99994.91;5106706;28;20039;-28
2022/08/08 04:14:26;;;;;;;32.05;23.08;;;;;;;19.98;84.73;99985.13;5106579;28;20035;-29
2022/08/08 04:16:51;;;;;;;25.33;20.88;;;;;;;20.25;83.71;99994.66;5088103;28;20115;-29
2022/08/08 04:19:17;;;;;;;27.80;20.67;;;;;;;20.24;83.77;99993.00;5106328;28;20188;-31
2022/08/08 04:21:42;;;;;;;24.48;20.33;;;;;;;20.45;82.98;100007.16;5106482;28;20038;-27
2022/08/08 04:24:07;;;;;;;22.98;19.48;;;;;;;20.35;82.73;100002.69;5106485;28;20027;-28
2022/08/08 04:26:33;;;;;;;22.50;18.50;;;;;;;20.40;83.10;100004.53;5106643;28;20023;-28
2022/08/08 04:28:59;;;;;;;26.95;19.08;;;;;;;20.24;83.89;99995.72;5106631;28;20032;-35
2022/08/08 04:31:24;;;;;;;22.45;19.55;;;;;;;20.22;83.67;99993.28;5106231;28;20034;-28
2022/08/08 04:33:50;;;;;;;23.63;20.60;;;;;;;20.28;83.52;99997.56;5106412;28;20055;-30
2022/08/08 04:36:15;;;;;;;30.98;22.20;;;;;;;20.16;84.37;99999.03;5106574;28;20028;-28
2022/08/08 04:38:41;;;;;;;28.85;23.05;;;;;;;20.30;84.63;100015.44;5106980;28;20104;-30
2022/08/08 04:41:06;;;;;;;37.03;26.25;;;;;;;20.53;83.77;100019.28;5087764;28;20034;-29
2022/08/08 04:43:31;;;;;;;36.80;26.60;;;;;;;20.42;83.93;99999.63;5105980;28;20106;-28
2022/08/08 04:45:57;;;;;;;29.42;22.80;;;;;;;20.33;84.10;99999.44;5105668;28;20146;-28
2022/08/08 04:48:22;;;;;;;27.58;22.88;;;;;;;20.28;84.97;99996.78;5106029;28;20067;-30
2022/08/08 04:50:48;;;;;;;31.85;24.42;;;;;;;20.37;85.61;100011.31;5105944;28;20020;-28
2022/08/08 04:53:13;;;;;;;28.73;23.45;;;;;;;20.43;85.35;100002.06;5105978;28;20415;-31
2022/08/08 04:55:39;;;;;;;31.98;25.20;;;;;;;20.74;84.88;100028.88;5105707;28;20019;-28
2022/08/08 04:58:05;;;;;;;27.92;23.23;;;;;;;20.91;84.29;100014.03;5105759;28;20042;-29
2022/08/08 05:00:31;;;;;;;30.15;22.17;;;;;;;21.03;83.82;100011.72;5106151;28;20414;-27
2022/08/08 05:02:56;;;;;;;26.27;21.05;;;;;;;21.16;83.27;100005.59;5104610;28;20042;-28
2022/08/08 05:05:22;;;;;;;25.67;20.05;;;;;;;21.25;82.46;100019.31;5105997;28;20036;-38
2022/08/08 05:07:48;;;;;;;21.98;17.20;;;;;;;21.34;81.25;100024.91;5070443;28;20031;-31
2022/08/08 05:10:13;;;;;;;25.00;19.02;;;;;;;21.48;81.26;100025.81;5105721;28;20096;-28
2022/08/08 05:12:40;;;;;;;20.48;15.98;;;;;;;21.49;79.54;100008.44;5105788;28;20031;-30
2022/08/08 05:15:06;;;;;;;18.58;15.77;;;;;;;21.52;79.89;100018.72;5087256;28;20088;-32
2022/08/08 05:17:32;;;;;;;17.95;15.02;;;;;;;21.55;79.14;100007.25;5105464;28;20035;-29
2022/08/08 05:19:57;;;;;;;19.20;16.38;;;;;;;21.78;80.20;100029.19;5105807;28;20035;-28
2022/08/08 05:22:23;;;;;;;19.20;16.13;;;;;;;21.84;78.39;100025.28;5087473;28;20407;-32
2022/08/08 05:24:48;;;;;;;17.05;14.10;;;;;;;21.83;79.33;100024.47;5105634;28;20037;-31
2022/08/08 05:27:14;;;;;;;15.82;13.43;;;;;;;22.14;77.53;100032.16;5105763;28;20135;-30
2022/08/08 05:29:40;;;;;;;16.67;14.15;;;;;;;22.32;76.30;100033.25;5105188;28;20030;-32
2022/08/08 05:32:08;;;;;;;17.80;13.43;;;;;;;22.34;75.55;100039.19;5105485;28;20724;-31
2022/08/08 05:34:39;;;;;;;17.00;14.05;;;;;;;22.53;75.36;100044.53;5087275;28;20034;-30
2022/08/08 05:37:05;;;;;;;16.33;13.43;;;;;;;22.65;74.14;100033.19;5086970;28;20039;-31
2022/08/08 05:39:30;;;;;;;16.13;13.32;;;;;;;22.95;74.15;100022.84;5105370;28;20030;-30
2022/08/08 05:41:57;;;;;;;13.95;12.23;;;;;;;23.13;72.97;100048.34;5105155;28;20028;-31
2022/08/08 05:44:27;;;;;;;14.97;12.23;;;;;;;23.21;71.99;100032.13;5069993;28;20135;-33
2022/08/08 05:46:54;;;;;;;15.30;12.73;;;;;;;23.42;72.44;100048.03;5104972;28;20903;-30
2022/08/08 05:49:20;;;;;;;15.77;12.45;;;;;;;23.73;71.60;100055.50;5087076;28;20115;-30
2022/08/08 05:51:47;;;;;;;14.20;12.35;;;;;;;23.88;70.71;100049.72;5105208;28;20031;-33
2022/08/08 05:54:12;;;;;;;15.75;13.15;;;;;;;23.92;70.25;100037.09;5087032;28;20023;-33
2022/08/08 05:56:40;;;;;;;15.10;11.80;;;;;;;23.93;68.95;100037.94;5105268;28;20796;-31
2022/08/08 05:59:10;;;;;;;14.02;11.40;;;;;;;24.07;68.53;100052.28;5086932;28;20059;-32
2022/08/08 06:01:41;;;;;;;14.63;11.70;;;;;;;24.19;69.20;100051.72;5086898;28;20406;-30
2022/08/08 06:04:10;;;;;;;15.45;12.40;;;;;;;24.31;68.29;100049.22;5087173;28;20050;-32
2022/08/08 06:06:42;;;;;;;15.40;11.45;;;;;;;24.33;68.16;100057.91;5087101;28;20031;-30
2022/08/08 06:09:09;;;;;;;15.73;12.05;;;;;;;24.43;68.13;100057.63;5105388;28;20038;-32
2022/08/08 06:11:34;;;;;;;13.25;10.35;;;;;;;24.36;67.21;100056.50;5086775;28;20122;-31
2022/08/08 06:14:04;;;;;;;14.95;11.35;;;;;;;24.54;66.72;100058.22;5105727;28;20403;-29
2022/08/08 06:16:35;;;;;;;14.77;11.48;;;;;;;24.75;66.64;100057.69;5090587;28;20512;-35
2022/08/08 06:19:01;;;;;;;15.18;11.10;;;;;;;24.99;64.64;100073.69;5109277;28;20032;-35
2022/08/08 06:21:27;;;;;;;12.10;9.93;;;;;;;24.93;64.08;100072.19;5108887;28;20020;-30
2022/08/08 06:23:53;;;;;;;12.18;9.95;;;;;;;25.02;63.79;100070.31;5090516;28;20028;-34
2022/08/08 06:26:23;;;;;;;11.52;10.00;;;;;;;25.12;63.25;100067.28;5090298;28;20031;-32
2022/08/08 06:28:52;;;;;;;13.75;10.35;;;;;;;25.26;62.91;100073.44;5090112;28;20518;-30
2022/08/08 06:31:21;;;;;;;15.07;10.55;;;;;;;25.54;62.39;100078.66;5090206;28;20072;-32
2022/08/08 06:34:17;;;;;;;12.93;10.52;;;;;;;25.59;61.68;100064.84;5089927;28;20054;-30
2022/08/08 06:36:44;;;;;;;12.13;10.10;;;;;;;25.85;61.94;100066.78;5090034;28;20035;-33
2022/08/08 06:39:15;;;;;;;11.75;9.00;;;;;;;25.89;60.07;100067.75;5090222;28;20069;-31
2022/08/08 06:41:53;;;;;;;11.73;9.00;;;;;;;26.01;59.88;100067.94;5108476;28;20035;-31
2022/08/08 06:44:22;;;;;;;10.15;8.35;;;;;;;26.20;59.70;100069.53;5089909;28;20177;-32
2022/08/08 06:46:48;;;;;;;11.93;8.43;;;;;;;26.43;58.78;100076.41;5089579;28;20055;-31
2022/08/08 06:49:14;;;;;;;10.73;8.30;;;;;;;26.32;58.21;100075.16;5089513;28;20028;-31
2022/08/08 06:51:39;;;;;;;9.48;7.43;;;;;;;26.35;57.25;100074.47;5108292;28;20027;-30
2022/08/08 06:54:06;;;;;;;12.82;7.85;;;;;;;26.65;55.80;100067.19;5108444;28;20035;-35
2022/08/08 06:56:33;;;;;;;10.07;7.67;;;;;;;26.89;54.85;100056.81;5073045;28;20498;-32
2022/08/08 06:58:58;;;;;;;12.77;7.40;;;;;;;27.10;54.21;100060.41;5073408;28;20108;-34
2022/08/08 07:01:26;;;;;;;8.73;6.80;;;;;;;27.04;53.37;100064.47;5108128;28;20039;-33
2022/08/08 07:03:59;;;;;;;10.40;7.50;;;;;;;27.29;53.92;100072.91;5089703;28;20031;-33
2022/08/08 07:06:30;;;;;;;11.82;7.70;;;;;;;27.36;54.20;100063.03;5089850;28;20044;-32
2022/08/08 07:09:11;;;;;;;9.05;6.95;;;;;;;27.74;52.30;100070.31;5107878;28;20023;-33
2022/08/08 07:11:41;;;;;;;10.73;6.13;;;;;;;27.81;48.41;100069.81;5089025;28;20464;-33
2022/08/08 07:14:07;;;;;;;9.55;6.75;;;;;;;27.79;49.61;100069.34;5107590;28;20475;-30
2022/08/08 07:16:48;;;;;;;7.63;6.35;;;;;;;28.02;49.96;100072.56;5089581;28;20032;-30
2022/08/08 07:19:29;;;;;;;9.52;6.38;;;;;;;27.85;49.41;100043.34;5089385;28;20028;-31
2022/08/08 07:21:59;;;;;;;9.25;6.10;;;;;;;28.07;48.78;100049.63;5089230;28;20042;-33
2022/08/08 07:24:27;;;;;;;9.32;5.80;;;;;;;28.19;48.09;100044.16;5088892;28;20023;-33
2022/08/08 07:26:53;;;;;;;13.48;6.30;;;;;;;28.52;48.95;100062.56;5106562;28;20055;-31
2022/08/08 07:29:20;;;;;;;8.45;6.38;;;;;;;28.59;47.72;100062.81;5089230;28;20027;-30
2022/08/08 07:31:46;;;;;;;8.73;5.63;;;;;;;28.52;46.58;100051.59;5088759;28;20035;-31
2022/08/08 07:34:13;;;;;;;7.60;5.60;;;;;;;28.45;47.06;100058.41;5089358;28;20032;-39
2022/08/08 07:36:40;;;;;;;10.63;6.00;;;;;;;28.54;45.96;100071.25;5089003;28;20039;-31
2022/08/08 07:39:07;;;;;;;6.90;5.60;;;;;;;28.95;45.88;100066.72;5072282;28;20028;-34
2022/08/08 07:41:36;;;;;;;8.68;5.75;;;;;;;28.89;45.25;100065.34;5088635;28;20027;-31
2022/08/08 07:44:04;;;;;;;13.30;5.50;;;;;;;29.08;44.91;100068.34;5088979;28;20111;-32
2022/08/08 07:46:30;;;;;;;7.07;5.35;;;;;;;29.20;44.29;100065.63;5106985;28;20101;-33
2022/08/08 07:48:55;;;;;;;8.48;5.30;;;;;;;29.39;42.94;100072.47;5107444;28;20027;-30
2022/08/08 07:51:22;;;;;;;7.82;5.25;;;;;;;29.40;41.96;100065.81;5107324;28;20031;-32
2022/08/08 07:54:07;;;;;;;6.97;4.70;;;;;;;29.55;40.95;100059.63;5088651;28;20019;-30
2022/08/08 07:56:41;;;;;;;8.45;4.18;;;;;;;29.72;41.62;100066.00;5107186;28;20036;-30
2022/08/08 07:59:13;;;;;;;7.10;4.47;;;;;;;29.79;38.11;100069.78;5088656;28;20062;-33
2022/08/08 08:01:44;;;;;;;8.88;4.47;;;;;;;29.87;39.44;100065.25;5088109;28;20467;-31
2022/08/08 08:04:13;;;;;;;6.45;4.60;;;;;;;30.11;38.52;100063.56;5088135;28;20114;-33
2022/08/08 08:06:40;;;;;;;8.50;4.97;;;;;;;30.34;38.26;100058.31;5088499;28;20038;-30
2022/08/08 08:09:20;;;;;;;9.07;4.40;;;;;;;30.48;39.76;100060.66;5106812;28;20107;-35
2022/08/08 08:11:48;;;;;;;5.63;4.18;;;;;;;30.59;37.56;100051.53;5071233;28;20108;-32
2022/08/08 08:14:18;;;;;;;7.57;4.10;;;;;;;30.55;37.26;100036.09;5106878;28;20023;-33
2022/08/08 08:16:46;;;;;;;7.25;4.18;;;;;;;30.68;35.83;100026.56;5087991;28;20506;-30
2022/08/08 08:19:12;;;;;;;12.07;4.85;;;;;;;30.59;35.47;100048.78;5088250;28;20740;-32
2022/08/08 08:21:41;;;;;;;6.97;4.03;;;;;;;30.59;35.49;100032.25;5088158;28;20035;-32
2022/08/08 08:24:07;;;;;;;6.10;4.18;;;;;;;30.97;35.21;100050.09;5088089;28;20027;-33
2022/08/08 08:26:33;;;;;;;8.43;4.43;;;;;;;31.27;35.01;100040.56;5088045;28;20038;-32
2022/08/08 08:28:58;;;;;;;6.45;3.63;;;;;;;31.16;34.06;100035.59;5106429;28;20023;-31
2022/08/08 08:31:25;;;;;;;6.05;3.65;;;;;;;31.29;34.66;100041.00;5105943;28;20641;-32
2022/08/08 08:33:51;;;;;;;9.27;4.50;;;;;;;31.34;33.26;100035.19;5087816;28;20035;-30
2022/08/08 08:36:19;;;;;;;6.10;4.07;;;;;;;31.55;34.08;100043.97;5106206;28;20407;-30
2022/08/08 08:38:45;;;;;;;12.68;4.53;;;;;;;31.93;33.77;100055.34;5087705;28;20028;-31
2022/08/08 08:41:11;;;;;;;9.13;4.22;;;;;;;32.15;32.56;100045.56;5106301;28;20039;-37
2022/08/08 08:43:40;;;;;;;17.47;4.93;;;;;;;32.50;33.16;100044.59;5087313;28;20032;-31
2022/08/08 08:46:11;;;;;;;6.72;3.83;;;;;;;32.69;32.75;100030.75;5087545;28;20089;-30
2022/08/08 08:48:38;;;;;;;7.97;3.92;;;;;;;32.65;31.42;100024.38;5087417;28;20035;-32
2022/08/08 08:51:08;;;;;;;5.38;3.53;;;;;;;32.29;30.89;100026.50;5087768;28;20031;-33
2022/08/08 08:53:36;;;;;;;6.80;3.40;;;;;;;32.30;30.29;100017.06;5087298;28;20069;-32
2022/08/08 08:56:02;;;;;;;;;;;;;;;32.77;30.08;100024.16;5106501;28;20038;-35
2022/08/08 08:58:34;;;;;;;5.75;3.70;;;;;;;32.89;29.61;100016.84;5087403;28;19907;-30
2022/08/08 09:01:02;;;;;;;6.18;3.55;;;;;;;33.12;30.41;100008.53;5087842;28;20045;-33
2022/08/08 09:03:29;;;;;;;6.18;3.75;;;;;;;32.99;30.06;100008.72;5087341;28;20134;-31
2022/08/08 09:05:54;;;;;;;;;;;;;;;33.23;30.97;100010.28;5088180;28;20143;-34
2022/08/08 09:08:26;;;;;;;5.35;3.60;;;;;;;33.42;29.99;100012.09;5106040;28;20006;-33
2022/08/08 09:10:52;;;;;;;8.52;4.10;;;;;;;33.85;30.62;99989.72;5087257;28;20038;-31
2022/08/08 09:13:20;;;;;;;9.27;4.55;;;;;;;34.09;29.80;100006.97;5087444;28;20237;-32
2022/08/08 09:15:46;;;;;;;5.38;2.55;;;;;;;34.17;26.77;99990.06;5105554;28;20040;-35
2022/08/08 09:18:16;;;;;;;8.33;2.70;;;;;;;33.98;25.28;100001.31;5087283;28;20023;-32
2022/08/08 09:20:44;;;;;;;7.85;2.45;;;;;;;33.83;24.93;99992.84;5087099;28;20088;-31
2022/08/08 09:23:11;;;;;;;8.55;3.00;;;;;;;34.13;25.01;100007.81;5087217;28;20031;-34
2022/08/08 09:25:42;;;;;;;5.88;2.38;;;;;;;33.85;24.75;100000.78;5087104;28;20031;-32
2022/08/08 09:28:08;;;;;;;13.48;2.60;;;;;;;34.38;23.98;99995.00;5087132;28;20177;-30
2022/08/08 09:30:37;;;;;;;11.57;2.65;;;;;;;34.52;24.17;100004.63;5105558;28;20126;-32
2022/08/08 09:33:03;;;;;;;8.63;2.38;;;;;;;34.40;23.27;99980.78;5105608;28;20495;-32
2022/08/08 09:35:30;;;;;;;3.70;1.90;;;;;;;34.85;23.31;99991.81;5086822;28;20028;-34
2022/08/08 09:37:59;;;;;;;;;;;;;;;34.76;23.68;100004.03;5087609;28;20084;-35
2022/08/08 09:40:26;;;;;;;5.90;2.30;;;;;;;34.00;24.63;99985.94;5105967;28;19942;-32
2022/08/08 09:43:02;;;;;;;5.40;2.20;;;;;;;34.33;25.09;99989.84;5087150;28;20032;-36
2022/08/08 09:45:39;;;;;;;7.57;2.30;;;;;;;33.80;24.58;99982.56;5086730;28;20055;-38
2022/08/08 09:48:08;;;;;;;5.97;2.25;;;;;;;34.39;24.88;99980.00;5087061;28;20563;-31
2022/08/08 09:50:33;;;;;;;7.30;2.33;;;;;;;34.37;23.43;99976.81;5089623;28;20031;-31
2022/08/08 09:53:02;;;;;;;16.42;2.75;;;;;;;34.30;22.98;99982.28;5110054;28;20095;-32
2022/08/08 09:55:30;;;;;;;8.48;2.30;;;;;;;34.57;23.93;99985.69;5091100;28;20024;-33
2022/08/08 09:58:05;;;;;;;6.93;2.53;;;;;;;34.79;23.61;99994.16;5090717;28;20091;-30
2022/08/08 10:00:35;;;;;;;5.18;2.20;;;;;;;34.95;22.88;99972.50;5090903;28;20032;-30
2022/08/08 10:03:02;;;;;;;5.38;2.08;;;;;;;34.99;23.04;99970.53;5090552;28;20032;-33
2022/08/08 10:05:33;;;;;;;8.05;2.55;;;;;;;35.11;22.90;99974.97;5090460;28;20026;-35
2022/08/08 10:07:59;;;;;;;6.07;2.28;;;;;;;34.94;23.11;99970.91;5090578;28;20032;-33
2022/08/08 10:10:28;;;;;;;11.45;2.88;;;;;;;34.90;22.34;99980.38;5090800;28;20632;-30
2022/08/08 10:12:53;;;;;;;3.88;1.90;;;;;;;34.90;22.63;99966.50;5108904;28;20027;-32
2022/08/08 10:15:20;;;;;;;4.15;2.28;;;;;;;35.08;22.47;99953.56;5109110;28;20084;-32
2022/08/08 10:17:48;;;;;;;4.45;2.25;;;;;;;35.49;22.38;99969.19;5090417;28;20034;-33
2022/08/08 10:20:15;;;;;;;5.75;2.13;;;;;;;35.24;21.50;99952.47;5090691;28;20499;-33
2022/08/08 10:23:03;;;;;;;8.55;2.15;;;;;;;35.07;22.10;99957.53;5090426;28;20118;-37
2022/08/08 10:25:29;;;;;;;17.15;2.90;;;;;;;34.44;21.97;99970.53;5108802;28;20031;-33
2022/08/08 10:27:55;;;;;;;4.72;2.17;;;;;;;34.34;22.02;99949.09;5108627;28;20185;-30
2022/08/08 10:30:23;;;;;;;10.35;2.40;;;;;;;34.82;22.49;99946.31;5090449;28;20033;-37
2022/08/08 10:32:57;;;;;;;8.18;2.17;;;;;;;35.21;21.46;99959.59;5108840;28;20042;-35
2022/08/08 10:35:28;;;;;;;13.73;3.03;;;;;;;34.75;22.10;99958.13;5090059;28;20137;-34
2022/08/08 10:38:02;;;;;;;5.68;2.42;;;;;;;35.02;21.85;99955.09;5108578;28;20074;-33
2022/08/08 10:40:30;;;;;;;8.13;2.58;;;;;;;35.45;22.15;99962.84;5090023;28;20031;-33
2022/08/08 10:42:59;;;;;;;7.05;2.22;;;;;;;35.07;21.49;99942.88;5108687;28;20047;-34
2022/08/08 10:45:25;;;;;;;6.47;2.13;;;;;;;35.16;21.29;99944.13;5089440;28;20051;-35
2022/08/08 10:47:59;;;;;;;12.02;2.55;;;;;;;35.08;22.49;99953.56;5090204;28;20530;-30
2022/08/08 10:50:36;;;;;;;5.93;2.28;;;;;;;35.29;22.46;99955.69;5108668;28;20035;-36
2022/08/08 10:53:05;;;;;;;;;;;;;;;35.48;20.90;99949.00;5108793;28;20388;-31
2022/08/08 10:55:33;;;;;;;8.55;2.35;;;;;;;34.79;21.75;99942.31;5108023;28;19912;-30
2022/08/08 10:58:02;;;;;;;;;;;;;;;35.00;22.48;99947.19;5090328;28;20031;-32
2022/08/08 11:00:28;;;;;;;5.32;2.40;;;;;;;35.64;21.55;99934.78;5088918;28;19965;-31
2022/08/08 11:02:56;;;;;;;4.03;1.92;;;;;;;35.91;21.29;99926.94;5089286;28;20123;-32
2022/08/08 11:05:22;;;;;;;7.35;2.17;;;;;;;35.77;20.50;99938.00;5089633;28;20038;-30
2022/08/08 11:07:50;;;;;;;7.20;2.57;;;;;;;35.55;19.98;99926.03;5089552;28;20039;-30
2022/08/08 11:10:18;;;;;;;5.30;2.38;;;;;;;35.84;19.99;99915.84;5108265;28;20035;-33
2022/08/08 11:13:01;;;;;;;7.20;2.35;;;;;;;35.67;20.47;99911.81;5089886;28;20062;-31
2022/08/08 11:15:29;;;;;;;10.93;2.83;;;;;;;35.96;20.73;99922.97;5108020;28;20023;-33
2022/08/08 11:17:55;;;;;;;3.88;2.10;;;;;;;35.73;20.59;99937.22;5107875;28;20039;-34
2022/08/08 11:20:26;;;;;;;5.03;1.97;;;;;;;36.09;21.51;99915.06;5089561;28;20792;-30
2022/08/08 11:22:53;;;;;;;5.55;2.30;;;;;;;36.27;20.27;99920.63;5107874;28;20106;-31
2022/08/08 11:25:30;;;;;;;6.50;2.25;;;;;;;35.63;19.83;99913.78;5107767;28;20028;-31
2022/08/08 11:27:57;;;;;;;5.13;2.13;;;;;;;36.04;20.45;99907.13;5089439;28;20028;-31
2022/08/08 11:30:26;;;;;;;4.47;2.08;;;;;;;36.20;20.07;99905.53;5088921;28;20380;-33
2022/08/08 11:32:56;;;;;;;7.30;2.22;;;;;;;36.11;20.68;99907.13;5089205;28;20065;-31
2022/08/08 11:35:22;;;;;;;7.93;2.30;;;;;;;36.46;19.51;99886.09;5089106;28;20422;-32
2022/08/08 11:37:48;;;;;;;8.17;2.23;;;;;;;36.01;19.19;99915.03;5088862;28;20063;-31
2022/08/08 11:40:14;;;;;;;3.67;1.73;;;;;;;36.10;19.36;99897.19;5088971;28;20130;-31
2022/08/08 11:42:41;;;;;;;4.60;1.98;;;;;;;36.78;19.18;99900.72;5107775;28;20051;-32
2022/08/08 11:45:08;;;;;;;7.07;2.22;;;;;;;36.40;19.59;99914.25;5088068;28;20034;-33
2022/08/08 11:47:35;;;;;;;5.38;2.08;;;;;;;36.25;19.93;99903.56;5088731;28;20027;-30
2022/08/08 11:50:12;;;;;;;5.43;2.30;;;;;;;36.35;20.17;99895.25;5088808;28;20124;-32